sensor_id;sensor_type;location;lat;lon;timestamp;P1;durP1;ratioP1;P2;durP2;ratioP2
45049;SDS011;61798;48.048;-1.928;2023-04-24T00:02:01;8.50;;;3.50;;
45049;SDS011;61798;48.048;-1.928;2023-04-24T00:04:08;6.80;;;3.20;;
45049;SDS011;61798;48.048;-1.928;2023-04-24T00:06:17;7.55;;;3.40;;
45049;SDS011;61798;48.048;-1.928;2023-04-24T00:08:26;8.98;;;3.47;;
45049;SDS011;61798;48.048;-1.928;2023-04-24T00:10:33;6.03;;;3.00;;
45049;SDS011;61798;48.048;-1.928;2023-04-24T00:12:40;6.68;;;3.65;;
45049;SDS011;61798;48.048;-1.928;2023-04-24T00:14:47;10.63;;;3.33;;
45049;SDS011;61798;48.048;-1.928;2023-04-24T00:16:54;5.75;;;2.95;;
45049;SDS011;61798;48.048;-1.928;2023-04-24T00:19:03;5.85;;;3.58;;
45049;SDS011;61798;48.048;-1.928;2023-04-24T00:21:14;8.13;;;3.50;;
45049;SDS011;61798;48.048;-1.928;2023-04-24T00:23:22;4.60;;;3.17;;
45049;SDS011;61798;48.048;-1.928;2023-04-24T00:25:29;7.22;;;3.70;;
45049;SDS011;61798;48.048;-1.928;2023-04-24T00:27:35;9.77;;;4.00;;
45049;SDS011;61798;48.048;-1.928;2023-04-24T00:29:44;10.93;;;3.50;;
45049;SDS011;61798;48.048;-1.928;2023-04-24T00:31:51;7.63;;;3.53;;
45049;SDS011;61798;48.048;-1.928;2023-04-24T00:33:58;7.65;;;3.63;;
45049;SDS011;61798;48.048;-1.928;2023-04-24T00:36:05;6.38;;;3.60;;
45049;SDS011;61798;48.048;-1.928;2023-04-24T00:38:12;6.22;;;3.22;;
45049;SDS011;61798;48.048;-1.928;2023-04-24T00:40:20;8.40;;;3.58;;
45049;SDS011;61798;48.048;-1.928;2023-04-24T00:42:29;9.88;;;3.20;;
45049;SDS011;61798;48.048;-1.928;2023-04-24T00:44:36;10.68;;;3.22;;
45049;SDS011;61798;48.048;-1.928;2023-04-24T00:46:43;8.60;;;3.30;;
45049;SDS011;61798;48.048;-1.928;2023-04-24T00:48:52;6.85;;;3.25;;
45049;SDS011;61798;48.048;-1.928;2023-04-24T00:50:59;7.78;;;3.53;;
45049;SDS011;61798;48.048;-1.928;2023-04-24T00:53:05;7.93;;;3.40;;
45049;SDS011;61798;48.048;-1.928;2023-04-24T00:55:13;11.45;;;3.67;;
45049;SDS011;61798;48.048;-1.928;2023-04-24T00:57:21;12.43;;;3.78;;
45049;SDS011;61798;48.048;-1.928;2023-04-24T00:59:32;7.78;;;3.45;;
45049;SDS011;61798;48.048;-1.928;2023-04-24T01:01:38;8.85;;;4.22;;
45049;SDS011;61798;48.048;-1.928;2023-04-24T01:03:52;10.00;;;3.85;;
45049;SDS011;61798;48.048;-1.928;2023-04-24T01:06:00;7.80;;;3.72;;
45049;SDS011;61798;48.048;-1.928;2023-04-24T01:08:07;9.13;;;3.55;;
45049;SDS011;61798;48.048;-1.928;2023-04-24T01:10:14;9.93;;;3.70;;
45049;SDS011;61798;48.048;-1.928;2023-04-24T01:12:22;12.10;;;4.35;;
45049;SDS011;61798;48.048;-1.928;2023-04-24T01:14:29;7.88;;;3.25;;
45049;SDS011;61798;48.048;-1.928;2023-04-24T01:16:37;6.57;;;3.28;;
45049;SDS011;61798;48.048;-1.928;2023-04-24T01:18:45;8.90;;;3.63;;
45049;SDS011;61798;48.048;-1.928;2023-04-24T01:20:53;5.43;;;3.20;;
45049;SDS011;61798;48.048;-1.928;2023-04-24T01:23:11;9.98;;;3.45;;
45049;SDS011;61798;48.048;-1.928;2023-04-24T01:25:18;11.32;;;3.67;;
45049;SDS011;61798;48.048;-1.928;2023-04-24T01:27:25;8.48;;;3.45;;
45049;SDS011;61798;48.048;-1.928;2023-04-24T01:29:32;6.70;;;3.60;;
45049;SDS011;61798;48.048;-1.928;2023-04-24T01:31:39;8.20;;;4.05;;
45049;SDS011;61798;48.048;-1.928;2023-04-24T01:33:46;14.05;;;4.13;;
45049;SDS011;61798;48.048;-1.928;2023-04-24T01:35:54;9.20;;;3.85;;
45049;SDS011;61798;48.048;-1.928;2023-04-24T01:38:03;8.20;;;3.13;;
45049;SDS011;61798;48.048;-1.928;2023-04-24T01:40:13;8.13;;;3.70;;
45049;SDS011;61798;48.048;-1.928;2023-04-24T01:42:21;8.25;;;3.63;;
45049;SDS011;61798;48.048;-1.928;2023-04-24T01:44:29;10.73;;;3.20;;
45049;SDS011;61798;48.048;-1.928;2023-04-24T01:46:37;7.15;;;3.33;;
45049;SDS011;61798;48.048;-1.928;2023-04-24T01:48:44;6.65;;;3.10;;
45049;SDS011;61798;48.048;-1.928;2023-04-24T01:50:54;8.77;;;3.33;;
45049;SDS011;61798;48.048;-1.928;2023-04-24T01:53:03;9.70;;;2.90;;
45049;SDS011;61798;48.048;-1.928;2023-04-24T01:55:09;10.02;;;3.15;;
45049;SDS011;61798;48.048;-1.928;2023-04-24T01:57:17;8.45;;;3.00;;
45049;SDS011;61798;48.048;-1.928;2023-04-24T01:59:25;9.40;;;3.47;;
45049;SDS011;61798;48.048;-1.928;2023-04-24T02:01:41;6.57;;;3.25;;
45049;SDS011;61798;48.048;-1.928;2023-04-24T02:03:48;8.80;;;3.08;;
45049;SDS011;61798;48.048;-1.928;2023-04-24T02:05:55;8.07;;;2.72;;
45049;SDS011;61798;48.048;-1.928;2023-04-24T02:08:02;6.13;;;3.00;;
45049;SDS011;61798;48.048;-1.928;2023-04-24T02:10:11;7.72;;;3.40;;
45049;SDS011;61798;48.048;-1.928;2023-04-24T02:12:19;4.82;;;2.90;;
45049;SDS011;61798;48.048;-1.928;2023-04-24T02:14:26;6.88;;;3.10;;
45049;SDS011;61798;48.048;-1.928;2023-04-24T02:16:33;7.50;;;2.53;;
45049;SDS011;61798;48.048;-1.928;2023-04-24T02:18:43;8.02;;;3.35;;
45049;SDS011;61798;48.048;-1.928;2023-04-24T02:20:50;5.68;;;2.78;;
45049;SDS011;61798;48.048;-1.928;2023-04-24T02:22:56;10.23;;;3.25;;
45049;SDS011;61798;48.048;-1.928;2023-04-24T02:25:04;8.00;;;2.92;;
45049;SDS011;61798;48.048;-1.928;2023-04-24T02:27:12;8.30;;;3.33;;
45049;SDS011;61798;48.048;-1.928;2023-04-24T02:29:18;9.55;;;2.97;;
45049;SDS011;61798;48.048;-1.928;2023-04-24T02:31:25;7.00;;;2.78;;
45049;SDS011;61798;48.048;-1.928;2023-04-24T02:33:32;5.57;;;3.10;;
45049;SDS011;61798;48.048;-1.928;2023-04-24T02:35:38;6.65;;;2.95;;
45049;SDS011;61798;48.048;-1.928;2023-04-24T02:37:46;10.50;;;3.65;;
45049;SDS011;61798;48.048;-1.928;2023-04-24T02:39:53;9.02;;;3.10;;
45049;SDS011;61798;48.048;-1.928;2023-04-24T02:42:00;9.45;;;2.80;;
45049;SDS011;61798;48.048;-1.928;2023-04-24T02:44:08;8.98;;;3.17;;
45049;SDS011;61798;48.048;-1.928;2023-04-24T02:46:16;6.55;;;3.17;;
45049;SDS011;61798;48.048;-1.928;2023-04-24T02:48:23;8.05;;;2.67;;
45049;SDS011;61798;48.048;-1.928;2023-04-24T02:50:29;8.32;;;2.90;;
45049;SDS011;61798;48.048;-1.928;2023-04-24T02:52:36;8.32;;;3.13;;
45049;SDS011;61798;48.048;-1.928;2023-04-24T02:54:43;8.73;;;2.95;;
45049;SDS011;61798;48.048;-1.928;2023-04-24T02:56:52;11.73;;;3.35;;
45049;SDS011;61798;48.048;-1.928;2023-04-24T02:58:59;6.82;;;2.97;;
45049;SDS011;61798;48.048;-1.928;2023-04-24T03:01:05;5.35;;;2.72;;
45049;SDS011;61798;48.048;-1.928;2023-04-24T03:03:13;7.32;;;3.17;;
45049;SDS011;61798;48.048;-1.928;2023-04-24T03:05:20;8.18;;;2.28;;
45049;SDS011;61798;48.048;-1.928;2023-04-24T03:07:28;6.03;;;2.30;;
45049;SDS011;61798;48.048;-1.928;2023-04-24T03:09:34;6.38;;;2.65;;
45049;SDS011;61798;48.048;-1.928;2023-04-24T03:11:41;5.75;;;2.60;;
45049;SDS011;61798;48.048;-1.928;2023-04-24T03:13:49;5.00;;;2.53;;
45049;SDS011;61798;48.048;-1.928;2023-04-24T03:15:59;9.20;;;2.80;;
45049;SDS011;61798;48.048;-1.928;2023-04-24T03:18:05;7.25;;;2.15;;
45049;SDS011;61798;48.048;-1.928;2023-04-24T03:20:10;5.75;;;2.30;;
45049;SDS011;61798;48.048;-1.928;2023-04-24T03:22:20;7.05;;;2.60;;
45049;SDS011;61798;48.048;-1.928;2023-04-24T03:24:26;7.70;;;2.25;;
45049;SDS011;61798;48.048;-1.928;2023-04-24T03:26:35;6.15;;;2.25;;
45049;SDS011;61798;48.048;-1.928;2023-04-24T03:28:41;7.07;;;2.53;;
45049;SDS011;61798;48.048;-1.928;2023-04-24T03:30:48;6.40;;;2.00;;
45049;SDS011;61798;48.048;-1.928;2023-04-24T03:32:55;4.35;;;2.15;;
45049;SDS011;61798;48.048;-1.928;2023-04-24T03:35:02;6.88;;;2.42;;
45049;SDS011;61798;48.048;-1.928;2023-04-24T03:37:10;4.60;;;2.20;;
45049;SDS011;61798;48.048;-1.928;2023-04-24T03:39:17;5.20;;;2.33;;
45049;SDS011;61798;48.048;-1.928;2023-04-24T03:41:24;8.73;;;2.45;;
45049;SDS011;61798;48.048;-1.928;2023-04-24T03:43:31;7.88;;;2.70;;
45049;SDS011;61798;48.048;-1.928;2023-04-24T03:45:40;7.05;;;2.55;;
45049;SDS011;61798;48.048;-1.928;2023-04-24T03:47:47;6.32;;;2.22;;
45049;SDS011;61798;48.048;-1.928;2023-04-24T03:49:54;6.95;;;2.60;;
45049;SDS011;61798;48.048;-1.928;2023-04-24T03:52:02;3.72;;;2.75;;
45049;SDS011;61798;48.048;-1.928;2023-04-24T03:54:09;4.88;;;2.60;;
45049;SDS011;61798;48.048;-1.928;2023-04-24T03:56:17;4.38;;;2.28;;
45049;SDS011;61798;48.048;-1.928;2023-04-24T03:58:24;5.85;;;2.38;;
45049;SDS011;61798;48.048;-1.928;2023-04-24T04:00:31;8.27;;;2.25;;
45049;SDS011;61798;48.048;-1.928;2023-04-24T04:02:38;9.40;;;2.65;;
45049;SDS011;61798;48.048;-1.928;2023-04-24T04:04:45;6.95;;;2.33;;
45049;SDS011;61798;48.048;-1.928;2023-04-24T04:06:53;5.90;;;2.40;;
45049;SDS011;61798;48.048;-1.928;2023-04-24T04:09:00;5.82;;;2.72;;
45049;SDS011;61798;48.048;-1.928;2023-04-24T04:11:07;7.22;;;2.47;;
45049;SDS011;61798;48.048;-1.928;2023-04-24T04:13:16;4.50;;;2.58;;
45049;SDS011;61798;48.048;-1.928;2023-04-24T04:15:23;8.13;;;2.50;;
45049;SDS011;61798;48.048;-1.928;2023-04-24T04:17:29;14.35;;;2.88;;
45049;SDS011;61798;48.048;-1.928;2023-04-24T04:19:37;6.32;;;2.70;;
45049;SDS011;61798;48.048;-1.928;2023-04-24T04:21:44;8.20;;;2.13;;
45049;SDS011;61798;48.048;-1.928;2023-04-24T04:23:52;6.40;;;2.40;;
45049;SDS011;61798;48.048;-1.928;2023-04-24T04:25:59;7.03;;;3.00;;
45049;SDS011;61798;48.048;-1.928;2023-04-24T04:28:08;5.97;;;2.60;;
45049;SDS011;61798;48.048;-1.928;2023-04-24T04:30:15;10.70;;;2.85;;
45049;SDS011;61798;48.048;-1.928;2023-04-24T04:32:24;7.68;;;2.42;;
45049;SDS011;61798;48.048;-1.928;2023-04-24T04:34:33;6.63;;;2.67;;
45049;SDS011;61798;48.048;-1.928;2023-04-24T04:36:40;4.95;;;2.42;;
45049;SDS011;61798;48.048;-1.928;2023-04-24T04:38:48;6.38;;;2.17;;
45049;SDS011;61798;48.048;-1.928;2023-04-24T04:40:54;7.55;;;2.47;;
45049;SDS011;61798;48.048;-1.928;2023-04-24T04:43:04;5.97;;;2.90;;
45049;SDS011;61798;48.048;-1.928;2023-04-24T04:45:14;6.45;;;2.63;;
45049;SDS011;61798;48.048;-1.928;2023-04-24T04:47:23;6.68;;;2.75;;
45049;SDS011;61798;48.048;-1.928;2023-04-24T04:49:31;10.00;;;2.78;;
45049;SDS011;61798;48.048;-1.928;2023-04-24T04:51:39;6.47;;;2.88;;
45049;SDS011;61798;48.048;-1.928;2023-04-24T04:53:46;5.50;;;2.50;;
45049;SDS011;61798;48.048;-1.928;2023-04-24T04:55:53;4.60;;;2.70;;
45049;SDS011;61798;48.048;-1.928;2023-04-24T04:58:00;6.70;;;2.50;;
45049;SDS011;61798;48.048;-1.928;2023-04-24T05:00:07;4.78;;;2.63;;
45049;SDS011;61798;48.048;-1.928;2023-04-24T05:02:17;6.60;;;3.13;;
45049;SDS011;61798;48.048;-1.928;2023-04-24T05:04:24;9.15;;;2.63;;
45049;SDS011;61798;48.048;-1.928;2023-04-24T05:06:32;5.97;;;3.05;;
45049;SDS011;61798;48.048;-1.928;2023-04-24T05:08:39;8.45;;;2.70;;
45049;SDS011;61798;48.048;-1.928;2023-04-24T05:10:46;8.38;;;2.85;;
45049;SDS011;61798;48.048;-1.928;2023-04-24T05:12:53;7.47;;;2.53;;
45049;SDS011;61798;48.048;-1.928;2023-04-24T05:15:00;6.00;;;2.88;;
45049;SDS011;61798;48.048;-1.928;2023-04-24T05:17:07;3.42;;;2.45;;
45049;SDS011;61798;48.048;-1.928;2023-04-24T05:19:15;4.90;;;2.55;;
45049;SDS011;61798;48.048;-1.928;2023-04-24T05:21:22;7.50;;;3.10;;
45049;SDS011;61798;48.048;-1.928;2023-04-24T05:23:28;10.18;;;2.80;;
45049;SDS011;61798;48.048;-1.928;2023-04-24T05:25:34;5.00;;;2.58;;
45049;SDS011;61798;48.048;-1.928;2023-04-24T05:27:40;7.47;;;2.58;;
45049;SDS011;61798;48.048;-1.928;2023-04-24T05:29:47;7.30;;;3.15;;
45049;SDS011;61798;48.048;-1.928;2023-04-24T05:31:53;3.83;;;2.40;;
45049;SDS011;61798;48.048;-1.928;2023-04-24T05:33:58;5.80;;;2.40;;
45049;SDS011;61798;48.048;-1.928;2023-04-24T05:36:06;6.13;;;2.90;;
45049;SDS011;61798;48.048;-1.928;2023-04-24T05:38:12;8.55;;;3.10;;
45049;SDS011;61798;48.048;-1.928;2023-04-24T05:40:19;4.40;;;2.80;;
45049;SDS011;61798;48.048;-1.928;2023-04-24T05:42:25;9.35;;;3.50;;
45049;SDS011;61798;48.048;-1.928;2023-04-24T05:44:32;3.85;;;2.75;;
45049;SDS011;61798;48.048;-1.928;2023-04-24T05:46:38;10.10;;;2.97;;
45049;SDS011;61798;48.048;-1.928;2023-04-24T05:48:44;5.10;;;3.03;;
45049;SDS011;61798;48.048;-1.928;2023-04-24T05:50:50;7.90;;;3.05;;
45049;SDS011;61798;48.048;-1.928;2023-04-24T05:52:57;10.00;;;3.05;;
45049;SDS011;61798;48.048;-1.928;2023-04-24T05:55:05;5.72;;;2.60;;
45049;SDS011;61798;48.048;-1.928;2023-04-24T05:57:12;6.28;;;2.70;;
45049;SDS011;61798;48.048;-1.928;2023-04-24T05:59:18;6.40;;;2.70;;
45049;SDS011;61798;48.048;-1.928;2023-04-24T06:01:25;4.53;;;2.88;;
45049;SDS011;61798;48.048;-1.928;2023-04-24T06:03:31;6.50;;;2.72;;
45049;SDS011;61798;48.048;-1.928;2023-04-24T06:05:38;8.75;;;3.10;;
45049;SDS011;61798;48.048;-1.928;2023-04-24T06:07:45;5.75;;;2.40;;
45049;SDS011;61798;48.048;-1.928;2023-04-24T06:09:51;8.32;;;3.38;;
45049;SDS011;61798;48.048;-1.928;2023-04-24T06:11:58;6.30;;;2.78;;
45049;SDS011;61798;48.048;-1.928;2023-04-24T06:14:05;8.50;;;2.47;;
45049;SDS011;61798;48.048;-1.928;2023-04-24T06:16:11;5.72;;;2.45;;
45049;SDS011;61798;48.048;-1.928;2023-04-24T06:18:16;4.28;;;2.63;;
45049;SDS011;61798;48.048;-1.928;2023-04-24T06:20:24;4.78;;;2.80;;
45049;SDS011;61798;48.048;-1.928;2023-04-24T06:22:30;4.22;;;2.53;;
45049;SDS011;61798;48.048;-1.928;2023-04-24T06:24:39;6.97;;;2.83;;
45049;SDS011;61798;48.048;-1.928;2023-04-24T06:26:45;6.18;;;2.80;;
45049;SDS011;61798;48.048;-1.928;2023-04-24T06:28:51;6.25;;;2.83;;
45049;SDS011;61798;48.048;-1.928;2023-04-24T06:31:00;6.68;;;3.35;;
45049;SDS011;61798;48.048;-1.928;2023-04-24T06:33:06;5.85;;;3.00;;
45049;SDS011;61798;48.048;-1.928;2023-04-24T06:35:13;4.47;;;2.83;;
45049;SDS011;61798;48.048;-1.928;2023-04-24T06:37:22;6.20;;;2.45;;
45049;SDS011;61798;48.048;-1.928;2023-04-24T06:39:28;5.78;;;2.72;;
45049;SDS011;61798;48.048;-1.928;2023-04-24T06:41:35;7.22;;;3.70;;
45049;SDS011;61798;48.048;-1.928;2023-04-24T06:43:41;6.75;;;2.83;;
45049;SDS011;61798;48.048;-1.928;2023-04-24T06:45:48;9.00;;;3.00;;
45049;SDS011;61798;48.048;-1.928;2023-04-24T06:47:53;8.35;;;3.03;;
45049;SDS011;61798;48.048;-1.928;2023-04-24T06:50:01;4.55;;;2.53;;
45049;SDS011;61798;48.048;-1.928;2023-04-24T06:52:06;3.88;;;2.33;;
45049;SDS011;61798;48.048;-1.928;2023-04-24T06:54:12;5.25;;;3.03;;
45049;SDS011;61798;48.048;-1.928;2023-04-24T06:56:20;6.45;;;2.88;;
45049;SDS011;61798;48.048;-1.928;2023-04-24T06:58:28;4.35;;;2.78;;
45049;SDS011;61798;48.048;-1.928;2023-04-24T07:00:35;4.82;;;2.80;;
45049;SDS011;61798;48.048;-1.928;2023-04-24T07:02:43;6.28;;;2.70;;
45049;SDS011;61798;48.048;-1.928;2023-04-24T07:04:49;5.10;;;2.35;;
45049;SDS011;61798;48.048;-1.928;2023-04-24T07:06:55;6.70;;;3.25;;
45049;SDS011;61798;48.048;-1.928;2023-04-24T07:09:01;3.97;;;2.58;;
45049;SDS011;61798;48.048;-1.928;2023-04-24T07:11:10;6.70;;;3.17;;
45049;SDS011;61798;48.048;-1.928;2023-04-24T07:13:15;6.45;;;2.60;;
45049;SDS011;61798;48.048;-1.928;2023-04-24T07:15:23;3.85;;;2.83;;
45049;SDS011;61798;48.048;-1.928;2023-04-24T07:17:29;7.85;;;3.22;;
45049;SDS011;61798;48.048;-1.928;2023-04-24T07:19:35;5.25;;;3.22;;
45049;SDS011;61798;48.048;-1.928;2023-04-24T07:21:42;8.90;;;3.22;;
45049;SDS011;61798;48.048;-1.928;2023-04-24T07:23:48;4.38;;;2.75;;
45049;SDS011;61798;48.048;-1.928;2023-04-24T07:25:55;4.07;;;2.78;;
45049;SDS011;61798;48.048;-1.928;2023-04-24T07:28:01;7.10;;;2.95;;
45049;SDS011;61798;48.048;-1.928;2023-04-24T07:30:08;5.90;;;2.55;;
45049;SDS011;61798;48.048;-1.928;2023-04-24T07:32:14;7.80;;;2.78;;
45049;SDS011;61798;48.048;-1.928;2023-04-24T07:34:20;6.72;;;2.60;;
45049;SDS011;61798;48.048;-1.928;2023-04-24T07:36:26;7.28;;;2.40;;
45049;SDS011;61798;48.048;-1.928;2023-04-24T07:38:34;7.68;;;2.83;;
45049;SDS011;61798;48.048;-1.928;2023-04-24T07:40:40;6.95;;;2.78;;
45049;SDS011;61798;48.048;-1.928;2023-04-24T07:42:46;10.77;;;2.90;;
45049;SDS011;61798;48.048;-1.928;2023-04-24T07:44:57;6.43;;;2.80;;
45049;SDS011;61798;48.048;-1.928;2023-04-24T07:47:03;4.82;;;2.67;;
45049;SDS011;61798;48.048;-1.928;2023-04-24T07:49:10;7.35;;;3.22;;
45049;SDS011;61798;48.048;-1.928;2023-04-24T07:51:16;9.27;;;2.97;;
45049;SDS011;61798;48.048;-1.928;2023-04-24T07:53:23;9.30;;;2.80;;
45049;SDS011;61798;48.048;-1.928;2023-04-24T07:55:29;9.73;;;3.10;;
45049;SDS011;61798;48.048;-1.928;2023-04-24T07:57:37;7.35;;;3.03;;
45049;SDS011;61798;48.048;-1.928;2023-04-24T07:59:44;6.60;;;3.00;;
45049;SDS011;61798;48.048;-1.928;2023-04-24T08:01:51;6.75;;;2.80;;
45049;SDS011;61798;48.048;-1.928;2023-04-24T08:03:58;7.28;;;3.08;;
45049;SDS011;61798;48.048;-1.928;2023-04-24T08:06:04;5.10;;;3.13;;
45049;SDS011;61798;48.048;-1.928;2023-04-24T08:08:11;5.82;;;3.10;;
45049;SDS011;61798;48.048;-1.928;2023-04-24T08:10:17;7.15;;;3.13;;
45049;SDS011;61798;48.048;-1.928;2023-04-24T08:12:23;10.40;;;3.30;;
45049;SDS011;61798;48.048;-1.928;2023-04-24T08:14:30;7.18;;;3.05;;
45049;SDS011;61798;48.048;-1.928;2023-04-24T08:16:36;8.10;;;3.47;;
45049;SDS011;61798;48.048;-1.928;2023-04-24T08:18:44;10.82;;;2.83;;
45049;SDS011;61798;48.048;-1.928;2023-04-24T08:20:49;8.45;;;3.05;;
45049;SDS011;61798;48.048;-1.928;2023-04-24T08:22:56;8.77;;;3.00;;
45049;SDS011;61798;48.048;-1.928;2023-04-24T08:25:02;10.27;;;2.95;;
45049;SDS011;61798;48.048;-1.928;2023-04-24T08:27:08;6.03;;;2.88;;
45049;SDS011;61798;48.048;-1.928;2023-04-24T08:29:15;12.25;;;3.13;;
45049;SDS011;61798;48.048;-1.928;2023-04-24T08:31:21;6.22;;;2.95;;
45049;SDS011;61798;48.048;-1.928;2023-04-24T08:33:29;7.57;;;2.53;;
45049;SDS011;61798;48.048;-1.928;2023-04-24T08:35:39;13.57;;;4.18;;
45049;SDS011;61798;48.048;-1.928;2023-04-24T08:37:45;10.07;;;3.05;;
45049;SDS011;61798;48.048;-1.928;2023-04-24T08:39:52;8.18;;;2.45;;
45049;SDS011;61798;48.048;-1.928;2023-04-24T08:41:58;9.05;;;3.22;;
45049;SDS011;61798;48.048;-1.928;2023-04-24T08:44:12;7.43;;;4.07;;
45049;SDS011;61798;48.048;-1.928;2023-04-24T08:46:21;8.02;;;3.17;;
45049;SDS011;61798;48.048;-1.928;2023-04-24T08:48:29;7.00;;;2.30;;
45049;SDS011;61798;48.048;-1.928;2023-04-24T08:50:36;7.80;;;2.42;;
45049;SDS011;61798;48.048;-1.928;2023-04-24T08:52:43;9.35;;;2.65;;
45049;SDS011;61798;48.048;-1.928;2023-04-24T08:54:50;9.55;;;2.88;;
45049;SDS011;61798;48.048;-1.928;2023-04-24T08:56:59;8.40;;;2.90;;
45049;SDS011;61798;48.048;-1.928;2023-04-24T08:59:08;11.25;;;2.58;;
45049;SDS011;61798;48.048;-1.928;2023-04-24T09:01:14;7.53;;;2.85;;
45049;SDS011;61798;48.048;-1.928;2023-04-24T09:03:20;4.32;;;1.90;;
45049;SDS011;61798;48.048;-1.928;2023-04-24T09:05:28;6.35;;;2.40;;
45049;SDS011;61798;48.048;-1.928;2023-04-24T09:07:35;7.35;;;2.25;;
45049;SDS011;61798;48.048;-1.928;2023-04-24T09:09:43;7.47;;;2.05;;
45049;SDS011;61798;48.048;-1.928;2023-04-24T09:11:49;12.52;;;2.83;;
45049;SDS011;61798;48.048;-1.928;2023-04-24T09:13:58;10.10;;;3.05;;
45049;SDS011;61798;48.048;-1.928;2023-04-24T09:16:05;6.88;;;2.20;;
45049;SDS011;61798;48.048;-1.928;2023-04-24T09:18:12;8.50;;;2.35;;
45049;SDS011;61798;48.048;-1.928;2023-04-24T09:20:18;5.35;;;2.30;;
45049;SDS011;61798;48.048;-1.928;2023-04-24T09:22:24;6.82;;;2.13;;
45049;SDS011;61798;48.048;-1.928;2023-04-24T09:24:34;7.50;;;2.28;;
45049;SDS011;61798;48.048;-1.928;2023-04-24T09:26:40;11.57;;;2.83;;
45049;SDS011;61798;48.048;-1.928;2023-04-24T09:28:48;5.72;;;1.75;;
45049;SDS011;61798;48.048;-1.928;2023-04-24T09:31:04;6.60;;;2.40;;
45049;SDS011;61798;48.048;-1.928;2023-04-24T09:33:15;5.90;;;2.00;;
45049;SDS011;61798;48.048;-1.928;2023-04-24T09:35:21;3.90;;;2.00;;
45049;SDS011;61798;48.048;-1.928;2023-04-24T09:37:30;9.70;;;2.38;;
45049;SDS011;61798;48.048;-1.928;2023-04-24T09:39:37;5.03;;;2.38;;
45049;SDS011;61798;48.048;-1.928;2023-04-24T09:41:44;4.70;;;2.00;;
45049;SDS011;61798;48.048;-1.928;2023-04-24T09:43:53;4.80;;;2.10;;
45049;SDS011;61798;48.048;-1.928;2023-04-24T09:46:04;8.73;;;2.47;;
45049;SDS011;61798;48.048;-1.928;2023-04-24T09:48:12;4.50;;;2.30;;
45049;SDS011;61798;48.048;-1.928;2023-04-24T09:50:18;5.35;;;2.13;;
45049;SDS011;61798;48.048;-1.928;2023-04-24T09:52:24;9.13;;;2.65;;
45049;SDS011;61798;48.048;-1.928;2023-04-24T09:54:31;10.35;;;2.30;;
45049;SDS011;61798;48.048;-1.928;2023-04-24T09:56:37;6.00;;;2.30;;
45049;SDS011;61798;48.048;-1.928;2023-04-24T09:58:49;6.30;;;2.30;;
45049;SDS011;61798;48.048;-1.928;2023-04-24T10:00:55;6.78;;;2.50;;
45049;SDS011;61798;48.048;-1.928;2023-04-24T10:03:03;8.60;;;2.33;;
45049;SDS011;61798;48.048;-1.928;2023-04-24T10:05:11;5.15;;;2.60;;
45049;SDS011;61798;48.048;-1.928;2023-04-24T10:07:17;6.82;;;2.35;;
45049;SDS011;61798;48.048;-1.928;2023-04-24T10:09:25;4.70;;;2.10;;
45049;SDS011;61798;48.048;-1.928;2023-04-24T10:11:32;6.70;;;2.50;;
45049;SDS011;61798;48.048;-1.928;2023-04-24T10:13:39;4.00;;;2.25;;
45049;SDS011;61798;48.048;-1.928;2023-04-24T10:15:45;4.72;;;2.30;;
45049;SDS011;61798;48.048;-1.928;2023-04-24T10:17:53;5.47;;;2.33;;
45049;SDS011;61798;48.048;-1.928;2023-04-24T10:20:00;5.68;;;2.45;;
45049;SDS011;61798;48.048;-1.928;2023-04-24T10:22:07;8.60;;;2.50;;
45049;SDS011;61798;48.048;-1.928;2023-04-24T10:24:18;8.20;;;2.45;;
45049;SDS011;61798;48.048;-1.928;2023-04-24T10:26:27;4.45;;;2.15;;
45049;SDS011;61798;48.048;-1.928;2023-04-24T10:28:34;10.40;;;2.42;;
45049;SDS011;61798;48.048;-1.928;2023-04-24T10:30:42;9.18;;;2.13;;
45049;SDS011;61798;48.048;-1.928;2023-04-24T10:32:48;7.03;;;2.10;;
45049;SDS011;61798;48.048;-1.928;2023-04-24T10:34:56;8.52;;;2.15;;
45049;SDS011;61798;48.048;-1.928;2023-04-24T10:37:01;6.03;;;2.13;;
45049;SDS011;61798;48.048;-1.928;2023-04-24T10:39:10;10.10;;;2.05;;
45049;SDS011;61798;48.048;-1.928;2023-04-24T10:41:18;8.65;;;2.20;;
45049;SDS011;61798;48.048;-1.928;2023-04-24T10:43:29;6.07;;;2.08;;
45049;SDS011;61798;48.048;-1.928;2023-04-24T10:45:37;6.88;;;2.05;;
45049;SDS011;61798;48.048;-1.928;2023-04-24T10:47:50;9.95;;;2.40;;
45049;SDS011;61798;48.048;-1.928;2023-04-24T10:52:04;6.10;;;2.10;;
45049;SDS011;61798;48.048;-1.928;2023-04-24T10:54:29;8.50;;;2.58;;
45049;SDS011;61798;48.048;-1.928;2023-04-24T10:56:40;6.80;;;1.85;;
45049;SDS011;61798;48.048;-1.928;2023-04-24T10:58:50;9.07;;;2.28;;
45049;SDS011;61798;48.048;-1.928;2023-04-24T11:00:59;8.95;;;1.73;;
45049;SDS011;61798;48.048;-1.928;2023-04-24T11:03:06;8.32;;;1.90;;
45049;SDS011;61798;48.048;-1.928;2023-04-24T11:08:15;5.85;;;2.13;;
45049;SDS011;61798;48.048;-1.928;2023-04-24T11:10:27;5.85;;;1.83;;
45049;SDS011;61798;48.048;-1.928;2023-04-24T11:12:34;7.88;;;2.28;;
45049;SDS011;61798;48.048;-1.928;2023-04-24T11:17:06;3.60;;;1.75;;
45049;SDS011;61798;48.048;-1.928;2023-04-24T11:19:20;5.53;;;1.80;;
45049;SDS011;61798;48.048;-1.928;2023-04-24T11:21:32;4.47;;;1.77;;
45049;SDS011;61798;48.048;-1.928;2023-04-24T11:23:48;7.05;;;2.13;;
45049;SDS011;61798;48.048;-1.928;2023-04-24T11:28:25;4.82;;;1.92;;
45049;SDS011;61798;48.048;-1.928;2023-04-24T11:30:32;5.80;;;2.00;;
45049;SDS011;61798;48.048;-1.928;2023-04-24T11:32:42;5.15;;;1.90;;
45049;SDS011;61798;48.048;-1.928;2023-04-24T11:34:50;5.35;;;1.85;;
45049;SDS011;61798;48.048;-1.928;2023-04-24T11:37:03;4.47;;;1.55;;
45049;SDS011;61798;48.048;-1.928;2023-04-24T11:39:11;5.10;;;1.45;;
45049;SDS011;61798;48.048;-1.928;2023-04-24T11:41:17;6.25;;;1.80;;
45049;SDS011;61798;48.048;-1.928;2023-04-24T11:43:23;4.57;;;1.42;;
45049;SDS011;61798;48.048;-1.928;2023-04-24T11:45:31;3.83;;;1.60;;
45049;SDS011;61798;48.048;-1.928;2023-04-24T11:47:37;6.03;;;1.77;;
45049;SDS011;61798;48.048;-1.928;2023-04-24T11:49:45;6.68;;;1.73;;
45049;SDS011;61798;48.048;-1.928;2023-04-24T11:51:54;3.65;;;1.58;;
45049;SDS011;61798;48.048;-1.928;2023-04-24T11:54:02;5.75;;;1.98;;
45049;SDS011;61798;48.048;-1.928;2023-04-24T11:56:16;6.75;;;1.70;;
45049;SDS011;61798;48.048;-1.928;2023-04-24T11:58:24;8.00;;;2.08;;
45049;SDS011;61798;48.048;-1.928;2023-04-24T12:00:33;8.82;;;2.15;;
45049;SDS011;61798;48.048;-1.928;2023-04-24T12:02:42;12.77;;;2.13;;
45049;SDS011;61798;48.048;-1.928;2023-04-24T12:04:49;6.47;;;2.00;;
45049;SDS011;61798;48.048;-1.928;2023-04-24T12:06:59;6.82;;;1.73;;
45049;SDS011;61798;48.048;-1.928;2023-04-24T12:09:08;6.70;;;1.80;;
45049;SDS011;61798;48.048;-1.928;2023-04-24T12:11:15;8.88;;;1.90;;
45049;SDS011;61798;48.048;-1.928;2023-04-24T12:13:23;9.75;;;2.03;;
45049;SDS011;61798;48.048;-1.928;2023-04-24T12:15:31;9.50;;;2.05;;
45049;SDS011;61798;48.048;-1.928;2023-04-24T12:17:36;5.35;;;1.80;;
45049;SDS011;61798;48.048;-1.928;2023-04-24T12:19:47;7.05;;;1.90;;
45049;SDS011;61798;48.048;-1.928;2023-04-24T12:22:03;6.93;;;2.25;;
45049;SDS011;61798;48.048;-1.928;2023-04-24T12:24:10;7.47;;;1.90;;
45049;SDS011;61798;48.048;-1.928;2023-04-24T12:26:17;5.18;;;1.73;;
45049;SDS011;61798;48.048;-1.928;2023-04-24T12:28:24;3.45;;;1.75;;
45049;SDS011;61798;48.048;-1.928;2023-04-24T12:30:31;7.47;;;1.95;;
45049;SDS011;61798;48.048;-1.928;2023-04-24T12:32:42;4.55;;;2.00;;
45049;SDS011;61798;48.048;-1.928;2023-04-24T12:34:50;9.00;;;2.00;;
45049;SDS011;61798;48.048;-1.928;2023-04-24T12:37:09;4.63;;;2.08;;
45049;SDS011;61798;48.048;-1.928;2023-04-24T12:39:16;6.90;;;2.35;;
45049;SDS011;61798;48.048;-1.928;2023-04-24T12:41:25;7.00;;;1.90;;
45049;SDS011;61798;48.048;-1.928;2023-04-24T12:43:30;6.47;;;2.08;;
45049;SDS011;61798;48.048;-1.928;2023-04-24T12:45:38;4.60;;;2.28;;
45049;SDS011;61798;48.048;-1.928;2023-04-24T12:47:44;6.88;;;2.22;;